Raceland, LA

8:31 AM CDT on May 24, 2015 (GMT -0500)
Sugarland Subdivision | | Change Station
CLOSE
Current Station
Personal Weather Station
Location: Raceland, LA
Elevation: 10 ft
Nearby Weather Stations

Elev 10 ft 29.70 °N, 90.57 °W | Updated 8 seconds ago

Mostly Cloudy
Mostly Cloudy
82.5 °F
Feels Like 91 °F
N
8.0
Wind Variable Wind from SE
Gusts 9.0 mph

Today
High -- | Low -- °F
--% Chance of Precip.
Yesterday
High -- | Low -- °F
Precip. -- in
6:05 AM 7:53 PM
Waxing Crescent, 39% visible
Pressure 30.07 in
Visibility 6.0 miles
Clouds Scattered Clouds 2000 ft
Mostly Cloudy 3000 ft
Heat Index 91 °F
Dew Point 76 °F
Humidity 82%
Rainfall 0.00 in
Snow Depth Not available.
UV 1 out of 12
Pollen 4.60 out of 12
Air Quality Not available.
Flu Activity Sporadic
METAR KHUM 241255Z 12012KT 6SM BR SCT020 BKN030 27/24 A3007 RMK ATIS J VA RY12...OO

More Conditions Fewer Conditions

Pressure 30.07 in
Visibility 6.0 miles
Clouds Scattered Clouds 2000 ft
Mostly Cloudy 3000 ft
Heat Index 91 °F
Dew Point 76 °F
Humidity 82%
Rainfall 0.00 in
Snow Depth Not available.
UV 1 out of 12
Pollen 4.60 out of 12
Air Quality Not available.
Flu Activity Sporadic
METAR KHUM 241255Z 12012KT 6SM BR SCT020 BKN030 27/24 A3007 RMK ATIS J VA RY12...OO

More Conditions Fewer Conditions

10-Day Weather Forecast

Almanac

Astronomy

May. 24, 2015 Rise Set
Actual Time
Civil Twilight
Nautical Twilight
Astronomical Twilight
Moon
Length of Visible Light
Length of Day
Tomorrow will be .
, % of the Moon is Illuminated

Today's Extremes

State Highs State Lows

Community

WunderPhotos

Upload Photos

1,823,736 photos uploaded!

WunderBlogs® & News

Nearby

Air Quality

  Air Quality AQ Index Pollutant
Not available.

Snow Depth

Station Depth Elevation

Earthquake Activity

City Distance Mag. Time & Date
Minimum magnitude displayed is 2.5.

Coastal Water Temperatures

Place Temperature

Stations

Nearby Weather Stations

Station Location Temp. Windchill Dew Point Humidity Wind Precip. Elev Updated Type